Time;durP1;ratioP1;P1;durP2;ratioP2;P2;SDS_P1;SDS_P2;PMS_P1;PMS_P2;Temp;Humidity;BMP_temperature;BMP_pressure;BME280_temperature;BME280_humidity;BME280_pressure;Samples;Min_cycle;Max_cycle;Signal;HPM_P1;HPM_P2
2023/09/27 00:00:10;;;;;;;23.20;16.80;;;;;;;13.00;95.30;101215.48;105569;1256;69209;-64
2023/09/27 00:02:59;;;;;;;19.30;14.40;;;;;;;13.00;95.36;101210.73;105579;1257;69138;-64
2023/09/27 00:05:28;;;;;;;18.80;13.20;;;;;;;12.99;95.46;101213.04;105637;1257;74590;-64
2023/09/27 00:07:57;;;;;;;19.90;13.60;;;;;;;13.01;95.94;101214.23;105537;1256;82620;-64
2023/09/27 00:10:26;;;;;;;17.70;12.40;;;;;;;13.03;96.28;101207.30;105641;1256;72618;-64
2023/09/27 00:12:55;;;;;;;17.20;10.90;;;;;;;13.07;96.34;101210.68;105558;1255;69858;-64
2023/09/27 00:15:23;;;;;;;14.20;11.50;;;;;;;13.04;96.31;101211.48;105537;1256;69074;-63
2023/09/27 00:17:52;;;;;;;14.70;10.70;;;;;;;13.09;96.95;101212.87;105572;1257;74861;-63
2023/09/27 00:20:21;;;;;;;15.60;10.70;;;;;;;13.09;96.52;101213.04;105592;1255;82526;-63
2023/09/27 00:22:51;;;;;;;13.00;10.40;;;;;;;13.08;96.46;101215.35;105581;1257;73852;-63
2023/09/27 00:25:20;;;;;;;16.60;12.60;;;;;;;13.06;96.19;101217.20;105636;1252;69881;-63
2023/09/27 00:27:48;;;;;;;26.10;18.40;;;;;;;13.11;98.03;101214.37;105775;1255;69100;-63
2023/09/27 00:30:16;;;;;;;27.70;18.20;;;;;;;13.34;99.96;101213.96;105586;1256;73109;-63
2023/09/27 00:32:45;;;;;;;18.00;13.40;;;;;;;13.51;99.97;101217.23;105456;1256;82312;-63
2023/09/27 00:35:19;;;;;;;18.20;14.20;;;;;;;13.51;98.95;101217.21;105608;1256;72509;-63
2023/09/27 00:37:49;;;;;;;21.90;16.90;;;;;;;13.52;99.19;101214.39;105617;1256;69151;-63
2023/09/27 00:40:22;;;;;;;22.70;15.90;;;;;;;13.63;99.96;101215.21;105757;1256;69077;-63
2023/09/27 00:42:51;;;;;;;23.50;18.00;;;;;;;13.75;100.00;101214.75;105485;1257;74633;-63
2023/09/27 00:45:19;;;;;;;31.60;21.90;;;;;;;13.87;100.00;101210.98;105544;1255;83334;-63
2023/09/27 00:47:50;;;;;;;24.90;18.70;;;;;;;14.01;100.00;101209.21;105572;1266;73551;-63
2023/09/27 00:50:18;;;;;;;22.50;17.00;;;;;;;14.10;100.00;101209.41;105595;1254;69169;-64
2023/09/27 00:52:47;;;;;;;25.50;16.90;;;;;;;14.12;100.00;101204.74;105648;1257;69319;-64
2023/09/27 00:55:19;;;;;;;25.30;18.30;;;;;;;14.15;100.00;101209.02;105719;1251;75005;-63
2023/09/27 00:57:49;;;;;;;33.20;22.70;;;;;;;14.20;100.00;101212.34;105560;1257;83616;-64
2023/09/27 01:00:18;;;;;;;36.30;25.60;;;;;;;14.30;100.00;101206.50;105462;1254;72625;-64
2023/09/27 01:02:46;;;;;;;35.00;24.10;;;;;;;14.41;100.00;101203.25;105483;1251;69119;-63
2023/09/27 01:05:16;;;;;;;34.80;24.20;;;;;;;14.50;100.00;101205.70;105741;1257;69147;-64
2023/09/27 01:07:47;;;;;;;31.70;21.60;;;;;;;14.58;100.00;101202.58;105571;1251;73862;-64
2023/09/27 01:10:15;;;;;;;27.60;18.60;;;;;;;14.60;100.00;101204.27;105518;1251;81658;-64
2023/09/27 01:12:44;;;;;;;23.60;18.60;;;;;;;14.60;100.00;101203.77;105609;1257;73735;-64
2023/09/27 01:15:12;;;;;;;28.70;20.90;;;;;;;14.59;100.00;101208.90;105528;1253;69054;-64
2023/09/27 01:18:00;;;;;;;24.90;18.80;;;;;;;14.60;100.00;101210.60;105667;1256;69071;-63
2023/09/27 01:20:31;;;;;;;22.80;17.40;;;;;;;14.64;100.00;101212.02;105575;1256;74595;-63
2023/09/27 01:23:00;;;;;;;30.30;22.40;;;;;;;14.66;100.00;101208.95;105703;1251;82169;-64
2023/09/27 01:25:31;;;;;;;34.20;22.30;;;;;;;14.76;100.00;101209.79;105558;1256;73869;-64
2023/09/27 01:28:01;;;;;;;29.90;21.50;;;;;;;14.81;100.00;101202.17;105581;1256;69228;-63
2023/09/27 01:30:32;;;;;;;30.40;21.80;;;;;;;14.85;100.00;101201.80;105606;1256;69159;-64
2023/09/27 01:33:06;;;;;;;26.90;19.60;;;;;;;14.88;100.00;101198.73;105732;1251;73831;-64
2023/09/27 01:35:37;;;;;;;27.20;20.50;;;;;;;14.91;100.00;101201.22;105583;1256;83422;-61
2023/09/27 01:38:06;;;;;;;;;;;;;;;14.94;100.00;101199.14;105587;1256;73850;-62
2023/09/27 01:40:45;;;;;;;27.30;19.00;;;;;;;14.93;100.00;101200.05;105492;1257;69208;-62
2023/09/27 01:43:13;;;;;;;25.70;19.10;;;;;;;14.90;100.00;101199.17;105558;1256;69264;-62
2023/09/27 01:45:42;;;;;;;24.20;17.90;;;;;;;14.86;100.00;101198.41;105627;1251;73820;-62
2023/09/27 01:48:12;;;;;;;30.20;20.90;;;;;;;14.86;100.00;101195.63;105617;1256;83174;-62
2023/09/27 01:50:41;;;;;;;30.00;21.60;;;;;;;14.89;100.00;101192.52;105716;1258;71721;-62
2023/09/27 01:53:10;;;;;;;32.80;21.70;;;;;;;14.92;100.00;101196.27;105441;1251;69173;-62
2023/09/27 01:55:38;;;;;;;27.10;21.00;;;;;;;14.97;100.00;101197.63;105689;1256;69096;-62
2023/09/27 01:58:07;;;;;;;33.70;22.30;;;;;;;15.02;100.00;101194.98;105432;1251;75089;-62
2023/09/27 02:00:36;;;;;;;27.10;20.30;;;;;;;15.05;100.00;101194.47;105449;1251;82480;-62
2023/09/27 02:03:04;;;;;;;26.90;20.10;;;;;;;15.04;100.00;101195.73;105577;1251;73921;-62
2023/09/27 02:05:33;;;;;;;22.50;17.90;;;;;;;15.03;100.00;101195.98;105606;1257;69164;-62
2023/09/27 02:08:02;;;;;;;23.20;17.50;;;;;;;14.96;100.00;101198.36;105490;1258;69222;-62
2023/09/27 02:10:30;;;;;;;25.00;17.80;;;;;;;14.89;100.00;101193.92;105413;1251;73898;-62
2023/09/27 02:12:59;;;;;;;29.90;21.50;;;;;;;14.82;100.00;101193.32;105436;1251;82811;-62
2023/09/27 02:15:27;;;;;;;29.10;19.20;;;;;;;14.86;100.00;101195.11;105586;1257;73587;-62
2023/09/27 02:17:55;;;;;;;19.90;16.90;;;;;;;14.79;100.00;101189.93;105415;1252;69125;-62
2023/09/27 02:20:24;;;;;;;24.80;17.60;;;;;;;14.72;100.00;101193.05;105645;1257;69518;-62
2023/09/27 02:22:54;;;;;;;26.50;18.70;;;;;;;14.71;100.00;101190.79;105642;1257;75046;-62
2023/09/27 02:25:23;;;;;;;22.20;17.90;;;;;;;14.75;100.00;101190.84;105527;1258;83616;-62
2023/09/27 02:27:51;;;;;;;25.90;19.00;;;;;;;14.72;100.00;101192.52;105540;1256;73866;-62
2023/09/27 02:30:19;;;;;;;24.70;17.70;;;;;;;14.66;100.00;101196.09;105588;1257;69275;-62
2023/09/27 02:32:48;;;;;;;25.50;16.90;;;;;;;14.58;100.00;101195.92;105446;1257;69144;-62
2023/09/27 02:35:20;;;;;;;24.40;17.40;;;;;;;14.49;100.00;101195.56;105438;1258;74926;-62
2023/09/27 02:37:49;;;;;;;23.80;17.30;;;;;;;14.38;99.96;101191.59;105594;1256;82416;-62
2023/09/27 02:40:17;;;;;;;25.30;17.50;;;;;;;14.28;99.68;101192.85;105542;1257;72918;-63
2023/09/27 02:42:50;;;;;;;23.60;16.60;;;;;;;14.19;99.54;101190.23;105543;1251;69147;-62
2023/09/27 02:45:18;;;;;;;20.10;15.50;;;;;;;14.10;99.38;101191.65;105459;1251;69126;-62
2023/09/27 02:47:47;;;;;;;19.10;15.20;;;;;;;14.04;99.68;101192.40;105423;1251;73908;-62
2023/09/27 02:50:15;;;;;;;21.50;15.20;;;;;;;13.99;99.70;101190.67;105467;1257;83661;-62
2023/09/27 02:52:44;;;;;;;21.20;15.80;;;;;;;13.91;99.37;101186.59;105551;1254;73659;-62
2023/09/27 02:55:13;;;;;;;18.40;15.10;;;;;;;13.84;99.14;101185.45;105440;1251;69110;-62
2023/09/27 02:57:47;;;;;;;20.10;14.10;;;;;;;13.77;99.06;101191.15;105582;1257;69199;-62
2023/09/27 03:00:18;;;;;;;16.70;14.30;;;;;;;13.70;99.24;101189.66;105377;1251;74699;-62
2023/09/27 03:02:46;;;;;;;;;;;;;;;13.66;99.13;101193.34;105564;1252;83637;-62
2023/09/27 03:05:15;;;;;;;21.80;13.70;;;;;;;13.59;99.08;101190.59;105431;1257;73599;-62
2023/09/27 03:07:44;;;;;;;18.20;13.00;;;;;;;13.54;99.19;101185.17;105500;1253;69226;-62
2023/09/27 03:10:15;;;;;;;17.90;13.90;;;;;;;13.49;99.33;101182.02;105616;1251;69135;-62
2023/09/27 03:12:49;;;;;;;17.60;13.20;;;;;;;13.43;99.13;101181.18;105656;1252;74699;-62
2023/09/27 03:15:18;;;;;;;17.50;13.50;;;;;;;13.37;99.31;101177.51;105518;1251;83182;-62
2023/09/27 03:17:47;;;;;;;18.70;13.40;;;;;;;13.35;99.72;101178.29;105546;1251;72787;-62
2023/09/27 03:20:16;;;;;;;15.60;12.40;;;;;;;13.34;99.87;101179.71;105578;1257;69115;-62
2023/09/27 03:22:46;;;;;;;18.60;12.60;;;;;;;13.31;99.47;101182.14;105579;1251;69088;-62
2023/09/27 03:25:19;;;;;;;;;;;;;;;13.26;99.49;101185.65;105620;1256;75028;-62
2023/09/27 03:27:48;;;;;;;16.60;11.60;;;;;;;13.24;99.80;101186.23;105421;1257;83751;-62
2023/09/27 03:30:17;;;;;;;18.20;13.10;;;;;;;13.20;99.54;101188.65;105790;1252;73720;-62
2023/09/27 03:32:46;;;;;;;17.70;12.70;;;;;;;13.17;99.65;101189.45;105615;1257;69096;-62
2023/09/27 03:35:15;;;;;;;15.40;12.40;;;;;;;13.15;99.88;101190.18;105612;1255;69109;-62
2023/09/27 03:37:44;;;;;;;16.30;13.60;;;;;;;13.16;99.92;101190.52;105548;1257;73837;-62
2023/09/27 03:40:13;;;;;;;21.30;12.80;;;;;;;13.18;100.00;101189.73;105586;1251;83308;-62
2023/09/27 03:42:44;;;;;;;19.70;12.60;;;;;;;13.18;100.00;101186.93;105440;1251;73509;-62
2023/09/27 03:45:14;;;;;;;17.10;12.60;;;;;;;13.17;100.00;101184.00;105612;1257;69077;-62
2023/09/27 03:47:46;;;;;;;16.60;12.20;;;;;;;13.15;100.00;101187.21;105549;1251;69179;-62
2023/09/27 03:50:21;;;;;;;16.00;11.30;;;;;;;13.11;99.95;101186.83;105554;1251;74595;-62
2023/09/27 03:52:50;;;;;;;16.80;11.90;;;;;;;13.07;99.87;101186.99;105600;1256;82448;-62
2023/09/27 03:55:19;;;;;;;17.50;12.80;;;;;;;13.04;99.84;101183.04;105435;1251;73685;-62
2023/09/27 03:57:47;;;;;;;17.50;11.70;;;;;;;13.03;99.96;101183.28;105625;1256;69227;-62
2023/09/27 04:00:17;;;;;;;16.20;12.30;;;;;;;13.01;99.89;101190.36;105743;1255;69196;-62
2023/09/27 04:02:47;;;;;;;16.30;11.40;;;;;;;13.00;99.88;101189.52;105729;1251;73849;-62
2023/09/27 04:05:22;;;;;;;17.00;11.90;;;;;;;13.00;100.00;101189.34;105632;1251;83325;-62
2023/09/27 04:07:51;;;;;;;16.40;12.40;;;;;;;13.04;100.00;101190.43;105410;1257;73858;-62
2023/09/27 04:10:19;;;;;;;15.40;12.00;;;;;;;13.06;100.00;101189.98;105421;1254;69311;-62
2023/09/27 04:12:48;;;;;;;19.90;12.30;;;;;;;13.04;100.00;101189.91;105642;1256;69157;-62
2023/09/27 04:15:17;;;;;;;15.90;11.10;;;;;;;12.99;100.00;101189.88;105639;1251;73777;-62
2023/09/27 04:17:45;;;;;;;14.90;10.90;;;;;;;12.93;99.94;101190.09;105587;1251;83152;-62
2023/09/27 04:20:15;;;;;;;17.60;11.70;;;;;;;12.88;99.76;101188.14;105582;1256;73891;-62
2023/09/27 04:22:48;;;;;;;18.40;11.70;;;;;;;12.85;99.82;101188.95;105593;1256;69156;-62
2023/09/27 04:25:18;;;;;;;17.10;11.30;;;;;;;12.81;99.61;101188.92;105628;1251;69177;-62
2023/09/27 04:27:49;;;;;;;;;;;;;;;12.78;99.58;101189.04;105614;1253;74883;-62
2023/09/27 04:30:19;;;;;;;15.10;11.30;;;;;;;12.73;99.56;101197.23;105583;1251;83376;-62
2023/09/27 04:32:52;;;;;;;18.30;11.90;;;;;;;12.68;99.36;101202.69;105613;1256;72412;-63
2023/09/27 04:35:21;;;;;;;21.60;13.80;;;;;;;12.63;99.17;101205.47;105580;1254;69189;-62
2023/09/27 04:37:50;;;;;;;16.70;13.30;;;;;;;12.59;99.21;101209.46;105593;1256;69132;-63
2023/09/27 04:40:18;;;;;;;20.90;14.70;;;;;;;12.58;99.60;101213.89;105596;1251;74871;-65
2023/09/27 04:42:47;;;;;;;20.00;13.90;;;;;;;12.53;99.44;101215.77;105771;1254;83695;-62
2023/09/27 04:45:15;;;;;;;20.30;14.40;;;;;;;12.51;99.56;101220.26;105690;1256;73695;-61
2023/09/27 04:47:44;;;;;;;22.30;15.10;;;;;;;12.49;99.83;101218.00;105722;1256;69167;-61
2023/09/27 04:50:14;;;;;;;18.20;13.00;;;;;;;12.49;99.58;101222.56;105712;1252;69184;-61
2023/09/27 04:52:44;;;;;;;17.70;12.00;;;;;;;12.46;99.63;101219.67;105693;1251;73734;-62
2023/09/27 04:55:14;;;;;;;15.80;11.90;;;;;;;12.46;99.86;101219.17;105762;1254;83588;-62
2023/09/27 04:57:43;;;;;;;12.80;11.30;;;;;;;12.46;99.89;101222.85;105686;1253;73354;-63
2023/09/27 05:00:18;;;;;;;13.20;11.10;;;;;;;12.48;99.94;101225.95;105783;1256;69167;-62
2023/09/27 05:02:48;;;;;;;14.30;11.70;;;;;;;12.48;99.96;101226.10;105686;1256;69122;-62
2023/09/27 05:05:17;;;;;;;13.20;11.10;;;;;;;12.48;100.00;101227.86;105887;1255;74534;-60
2023/09/27 05:07:46;;;;;;;17.30;12.10;;;;;;;12.52;100.00;101231.27;105577;1253;81943;-61
2023/09/27 05:10:15;;;;;;;14.90;12.20;;;;;;;12.55;100.00;101234.33;105679;1256;72228;-61
2023/09/27 05:12:43;;;;;;;16.50;11.20;;;;;;;12.57;100.00;101237.59;105819;1256;69158;-61
2023/09/27 05:15:12;;;;;;;14.40;11.20;;;;;;;12.59;100.00;101238.04;105633;1251;69212;-60
2023/09/27 05:17:40;;;;;;;14.40;11.60;;;;;;;12.62;100.00;101238.30;105752;1251;75222;-61
2023/09/27 05:20:13;;;;;;;14.10;11.70;;;;;;;12.65;100.00;101238.90;105591;1256;83320;-61
2023/09/27 05:22:42;;;;;;;17.60;14.00;;;;;;;12.71;100.00;101239.39;105681;1256;73912;-61
2023/09/27 05:25:11;;;;;;;16.90;12.00;;;;;;;12.78;100.00;101242.88;105790;1253;69167;-60
2023/09/27 05:27:40;;;;;;;16.90;11.90;;;;;;;12.83;100.00;101242.19;105795;1251;69068;-60
2023/09/27 05:30:12;;;;;;;16.60;12.50;;;;;;;12.88;100.00;101247.30;105768;1251;73898;-59
2023/09/27 05:32:42;;;;;;;17.30;11.80;;;;;;;12.91;100.00;101246.65;105852;1255;83469;-61
2023/09/27 05:35:11;;;;;;;;;;;;;;;12.96;100.00;101244.90;105661;1254;73713;-64
2023/09/27 05:37:42;;;;;;;16.80;11.90;;;;;;;13.02;100.00;101247.50;105643;1256;69230;-64
2023/09/27 05:40:11;;;;;;;19.00;13.40;;;;;;;13.08;100.00;101244.15;105701;1255;69134;-63
2023/09/27 05:42:40;;;;;;;18.20;12.80;;;;;;;13.13;100.00;101248.53;105992;1251;73796;-64
2023/09/27 05:45:12;;;;;;;17.50;12.80;;;;;;;13.21;100.00;101248.95;105719;1251;83331;-64
2023/09/27 05:47:41;;;;;;;28.40;20.10;;;;;;;13.32;100.00;101251.79;105630;1251;73779;-64
2023/09/27 05:50:13;;;;;;;20.80;14.80;;;;;;;13.45;100.00;101250.96;105520;1256;69185;-64
2023/09/27 05:52:43;;;;;;;25.90;18.10;;;;;;;13.52;100.00;101253.01;105765;1251;69240;-64
2023/09/27 05:55:13;;;;;;;24.70;17.70;;;;;;;13.65;100.00;101250.27;105734;1252;74806;-65
2023/09/27 05:57:41;;;;;;;22.40;17.00;;;;;;;13.79;100.00;101247.09;105758;1253;82906;-64
2023/09/27 06:00:26;;;;;;;19.30;15.60;;;;;;;13.91;100.00;101243.69;105628;1256;73869;-65
2023/09/27 06:02:55;;;;;;;18.80;15.20;;;;;;;14.01;100.00;101246.64;105711;1251;69117;-64
2023/09/27 06:05:23;;;;;;;25.30;18.40;;;;;;;14.12;100.00;101250.80;105678;1251;69120;-63
2023/09/27 06:07:52;;;;;;;18.60;14.80;;;;;;;14.21;100.00;101252.55;105820;1252;74920;-64
2023/09/27 06:10:22;;;;;;;20.80;14.90;;;;;;;14.29;100.00;101251.03;106105;1253;81551;-65
2023/09/27 06:12:50;;;;;;;24.10;18.40;;;;;;;14.35;100.00;101252.36;105737;1256;72613;-65
2023/09/27 06:15:19;;;;;;;28.10;17.30;;;;;;;14.45;100.00;101255.16;105671;1255;70621;-65
2023/09/27 06:17:48;;;;;;;23.50;18.00;;;;;;;14.53;100.00;101256.25;105651;1251;69069;-65
2023/09/27 06:20:21;;;;;;;24.00;18.20;;;;;;;14.61;100.00;101254.71;105725;1255;75357;-65
2023/09/27 06:22:52;;;;;;;21.90;17.40;;;;;;;14.69;100.00;101256.69;105449;1251;276202;-65
2023/09/27 06:25:24;;;;;;;24.70;17.80;;;;;;;14.76;100.00;101258.66;105661;1253;73769;-65
2023/09/27 06:27:52;;;;;;;24.30;17.90;;;;;;;14.83;100.00;101261.23;105611;1253;69209;-65
2023/09/27 06:30:21;;;;;;;23.60;17.90;;;;;;;14.88;100.00;101262.22;105596;1256;69200;-65
2023/09/27 06:32:49;;;;;;;24.80;17.90;;;;;;;14.95;100.00;101271.11;105751;1254;74501;-65
2023/09/27 06:35:18;;;;;;;22.50;18.50;;;;;;;15.01;100.00;101277.38;105821;1251;82592;-65
2023/09/27 06:37:49;;;;;;;28.00;19.30;;;;;;;15.08;100.00;101278.64;105589;1253;73121;-65
2023/09/27 06:40:19;;;;;;;28.30;20.30;;;;;;;15.14;100.00;101280.33;105644;1256;69190;-62
2023/09/27 06:42:48;;;;;;;26.60;19.40;;;;;;;15.21;100.00;101286.90;105837;1254;69508;-62
2023/09/27 06:45:16;;;;;;;23.40;18.80;;;;;;;15.27;100.00;101289.66;105715;1251;74840;-63
2023/09/27 06:47:45;;;;;;;23.20;18.70;;;;;;;15.34;100.00;101295.86;106022;1251;83338;-64
2023/09/27 06:50:16;;;;;;;27.10;20.00;;;;;;;15.41;100.00;101298.20;105760;1255;73937;-63
2023/09/27 06:52:46;;;;;;;24.60;19.50;;;;;;;15.48;100.00;101294.55;105692;1251;69052;-63
2023/09/27 06:55:19;;;;;;;26.70;19.40;;;;;;;15.53;100.00;101295.56;105741;1256;69119;-63
2023/09/27 06:57:50;;;;;;;22.00;18.30;;;;;;;15.58;100.00;101294.83;105684;1256;72896;-64
2023/09/27 07:00:23;;;;;;;23.30;19.20;;;;;;;15.64;100.00;101298.29;105638;1253;83563;-60
2023/09/27 07:02:52;;;;;;;27.60;17.60;;;;;;;15.70;100.00;101302.80;105651;1256;73090;-61
2023/09/27 07:05:22;;;;;;;25.10;19.80;;;;;;;15.76;100.00;101303.41;105684;1251;69088;-61
2023/09/27 07:07:53;;;;;;;;;;;;;;;15.82;100.00;101301.91;105878;1256;69075;-61
2023/09/27 07:10:23;;;;;;;23.70;18.50;;;;;;;15.89;100.00;101305.84;105788;1251;72801;-62
2023/09/27 07:12:52;;;;;;;22.70;18.80;;;;;;;15.94;100.00;101304.39;105981;1256;83331;-60
2023/09/27 07:15:20;;;;;;;26.20;19.80;;;;;;;16.00;100.00;101302.51;105774;1256;72628;-61
2023/09/27 07:17:49;;;;;;;22.90;18.40;;;;;;;16.07;100.00;101303.78;105606;1251;69000;-61
2023/09/27 07:20:27;;;;;;;23.90;18.10;;;;;;;16.15;100.00;101308.91;105771;1253;69097;-62
2023/09/27 07:22:57;;;;;;;25.20;19.40;;;;;;;16.23;100.00;101306.77;105676;1255;73113;-61
2023/09/27 07:25:28;;;;;;;25.00;18.40;;;;;;;16.29;100.00;101305.41;105614;1252;82504;-66
2023/09/27 07:27:56;;;;;;;25.20;18.60;;;;;;;16.37;100.00;101304.86;105637;1251;72028;-63
2023/09/27 07:30:25;;;;;;;24.20;18.10;;;;;;;16.45;100.00;101308.55;105612;1256;69145;-63
2023/09/27 07:32:55;;;;;;;23.80;19.10;;;;;;;16.53;100.00;101316.85;105824;1251;69171;-65
2023/09/27 07:35:27;;;;;;;;;;;;;;;16.61;100.00;101323.50;105647;1255;74958;-65
2023/09/27 07:37:56;;;;;;;23.80;18.70;;;;;;;16.70;100.00;101328.54;105846;1253;82793;-69
2023/09/27 07:40:24;;;;;;;23.00;19.20;;;;;;;16.79;100.00;101329.05;105556;1251;73647;-65
2023/09/27 07:42:52;;;;;;;23.10;18.30;;;;;;;16.89;100.00;101329.43;105541;1251;69228;-65
2023/09/27 07:45:21;;;;;;;22.50;17.00;;;;;;;17.00;100.00;101327.31;105653;1251;69083;-65
2023/09/27 07:47:51;;;;;;;19.10;16.40;;;;;;;17.09;100.00;101326.16;105598;1256;73024;-66
2023/09/27 07:50:20;;;;;;;;;;;;;;;17.17;100.00;101329.47;105671;1251;82604;-65
2023/09/27 07:52:49;;;;;;;24.30;17.20;;;;;;;17.28;100.00;101329.23;105664;1255;72113;-65
2023/09/27 07:55:17;;;;;;;20.50;16.20;;;;;;;17.43;100.00;101329.75;105579;1251;69159;-66
2023/09/27 07:57:46;;;;;;;22.50;16.70;;;;;;;17.57;100.00;101335.57;105566;1251;69064;-65
2023/09/27 08:00:19;;;;;;;20.20;15.50;;;;;;;17.70;100.00;101331.38;105400;1255;74867;-66
2023/09/27 08:02:48;;;;;;;22.70;15.90;;;;;;;17.83;100.00;101325.56;105691;1251;82809;-65
2023/09/27 08:05:17;;;;;;;;;;;;;;;17.98;100.00;101322.29;105671;1255;74153;-66
2023/09/27 08:07:45;;;;;;;17.00;13.80;;;;;;;18.13;100.00;101319.08;105528;1251;69179;-66
2023/09/27 08:10:13;;;;;;;16.90;14.00;;;;;;;18.25;100.00;101319.47;105655;1251;69190;-68
2023/09/27 08:12:45;;;;;;;17.70;13.80;;;;;;;18.39;100.00;101318.67;105022;1257;73790;-63
2023/09/27 08:15:13;;;;;;;16.90;12.50;;;;;;;18.55;100.00;101318.34;105029;1261;83096;-64
2023/09/27 08:17:42;;;;;;;17.50;14.10;;;;;;;18.68;100.00;101319.89;105063;1258;73711;-67
2023/09/27 08:20:12;;;;;;;16.30;12.80;;;;;;;18.82;100.00;101320.76;105032;1259;69142;-68
2023/09/27 08:22:40;;;;;;;16.60;12.10;;;;;;;18.98;100.00;101322.50;105023;1258;69086;-64
2023/09/27 08:25:19;;;;;;;17.40;11.20;;;;;;;19.07;100.00;101320.71;105005;1261;73342;-67
2023/09/27 08:27:50;;;;;;;12.80;11.40;;;;;;;19.19;100.00;101322.30;104978;1258;82057;-63
2023/09/27 08:30:22;;;;;;;14.60;11.80;;;;;;;19.30;100.00;101325.40;105063;1258;71801;-64
2023/09/27 08:32:51;;;;;;;14.70;11.00;;;;;;;19.44;100.00;101327.55;105574;1255;69735;-61
2023/09/27 08:35:20;;;;;;;14.60;11.50;;;;;;;19.61;100.00;101328.70;105838;1256;69546;-61
2023/09/27 08:37:48;;;;;;;15.60;10.70;;;;;;;19.73;100.00;101326.92;105629;1256;74015;-62
2023/09/27 08:40:17;;;;;;;15.20;11.00;;;;;;;19.85;100.00;101330.27;105745;1256;83522;-63
2023/09/27 08:42:50;;;;;;;14.10;11.40;;;;;;;20.02;100.00;101323.58;105635;1253;73751;-63
2023/09/27 08:45:22;;;;;;;14.70;10.60;;;;;;;20.25;100.00;101324.63;105721;1255;69268;-61
2023/09/27 08:47:51;;;;;;;21.20;10.40;;;;;;;20.43;100.00;101323.48;105578;1251;69748;-62
2023/09/27 08:50:20;;;;;;;14.80;10.50;;;;;;;20.60;100.00;101324.89;105617;1251;73797;-63
2023/09/27 08:52:50;;;;;;;15.30;10.60;;;;;;;20.77;100.00;101325.25;105637;1251;82339;-65
2023/09/27 08:55:19;;;;;;;11.30;9.10;;;;;;;20.91;100.00;101325.93;105594;1255;73411;-63
2023/09/27 08:57:49;;;;;;;12.20;9.70;;;;;;;21.01;100.00;101321.70;105593;1255;69228;-62
2023/09/27 09:00:22;;;;;;;;;;;;;;;21.17;100.00;101320.65;105538;1253;69254;-64
2023/09/27 09:02:57;;;;;;;13.70;8.40;;;;;;;21.29;99.89;101315.73;105630;1251;72552;-63
2023/09/27 09:05:29;;;;;;;12.70;8.60;;;;;;;21.42;99.15;101316.02;105584;1251;83559;-63
2023/09/27 09:08:00;;;;;;;9.70;8.30;;;;;;;21.54;98.59;101311.42;105532;1251;72351;-63
2023/09/27 09:10:28;;;;;;;12.70;8.30;;;;;;;21.73;98.28;101306.71;105577;1255;69132;-63
2023/09/27 09:13:00;;;;;;;13.20;7.80;;;;;;;21.87;97.08;101310.88;105636;1255;69188;-63
2023/09/27 09:15:40;;;;;;;11.00;8.30;;;;;;;22.06;97.23;101307.93;105737;1251;74716;-64
2023/09/27 09:18:28;;;;;;;10.50;7.80;;;;;;;22.36;97.04;101303.33;105608;1251;82398;-64
2023/09/27 09:20:59;;;;;;;11.80;7.90;;;;;;;22.64;96.18;101303.08;105588;1254;72637;-64
2023/09/27 09:23:33;;;;;;;14.00;7.40;;;;;;;22.93;95.46;101308.83;105741;1251;69211;-64
2023/09/27 09:26:09;;;;;;;12.30;6.40;;;;;;;23.20;94.57;101310.73;105603;1253;69186;-64
2023/09/27 09:28:56;;;;;;;10.30;6.50;;;;;;;23.42;92.79;101308.01;105759;1251;73441;-63
2023/09/27 09:31:29;;;;;;;8.90;6.10;;;;;;;23.69;92.10;101303.38;105615;1256;83526;-64
2023/09/27 09:34:08;;;;;;;11.50;6.20;;;;;;;23.95;90.47;101310.11;105550;1251;72628;-63
2023/09/27 09:36:37;;;;;;;9.80;6.10;;;;;;;24.17;89.04;101305.27;105589;1255;69686;-63
2023/09/27 09:39:14;;;;;;;8.90;6.10;;;;;;;24.41;87.88;101303.92;105659;1254;69174;-63
2023/09/27 09:41:47;;;;;;;11.90;5.90;;;;;;;24.62;86.72;101308.29;105637;1256;75025;-64
2023/09/27 09:44:24;;;;;;;9.40;6.70;;;;;;;24.85;85.88;101306.78;105677;1251;83478;-63
2023/09/27 09:46:52;;;;;;;10.40;6.30;;;;;;;25.10;84.96;101306.86;105709;1251;72595;-63
2023/09/27 09:49:21;;;;;;;13.30;6.10;;;;;;;25.31;83.55;101309.21;105510;1257;69075;-63
2023/09/27 09:51:52;;;;;;;10.70;6.40;;;;;;;25.51;82.05;101310.00;105588;1256;69110;-63
2023/09/27 09:54:26;;;;;;;9.00;5.50;;;;;;;25.71;81.05;101303.81;105636;1255;73760;-64
2023/09/27 09:56:59;;;;;;;9.30;5.80;;;;;;;25.89;79.40;101300.51;105624;1255;82505;-64
2023/09/27 09:59:57;;;;;;;12.60;5.80;;;;;;;26.04;78.27;101302.92;105416;1253;73396;-64
2023/09/27 10:02:31;;;;;;;7.60;5.30;;;;;;;26.27;77.63;101302.70;105587;1256;69898;-64
2023/09/27 10:05:00;;;;;;;10.90;6.10;;;;;;;26.57;77.06;101300.70;105606;1251;69200;-63
2023/09/27 10:07:29;;;;;;;8.50;5.30;;;;;;;26.79;75.60;101300.54;105673;1251;73786;-64
2023/09/27 10:09:58;;;;;;;10.40;6.10;;;;;;;26.97;74.44;101295.86;105610;1251;82470;-63
2023/09/27 10:12:26;;;;;;;9.80;5.50;;;;;;;27.15;73.53;101292.34;105529;1254;73275;-64
2023/09/27 10:14:55;;;;;;;7.50;5.30;;;;;;;27.36;72.83;101287.94;105624;1253;69177;-63
2023/09/27 10:17:29;;;;;;;9.90;5.40;;;;;;;27.58;72.16;101285.98;105465;1257;69081;-64
2023/09/27 10:20:12;;;;;;;11.20;5.60;;;;;;;27.86;71.31;101285.49;105658;1251;75014;-64
2023/09/27 10:22:45;;;;;;;12.40;5.90;;;;;;;28.15;70.60;101286.10;105562;1255;84266;-64
2023/09/27 10:25:23;;;;;;;8.60;5.90;;;;;;;28.44;69.37;101284.70;105613;1252;73724;-64
2023/09/27 10:28:15;;;;;;;10.60;5.80;;;;;;;28.65;68.01;101281.53;105613;1252;69179;-62
2023/09/27 10:30:45;;;;;;;11.90;5.40;;;;;;;28.81;66.96;101274.05;105751;1251;69568;-65
2023/09/27 10:33:20;;;;;;;7.70;4.90;;;;;;;28.97;66.31;101273.54;105636;1255;75844;-65
2023/09/27 10:36:01;;;;;;;8.00;4.80;;;;;;;29.16;65.23;101270.85;105623;1251;83462;-65
2023/09/27 10:38:52;;;;;;;11.40;4.80;;;;;;;29.41;64.14;101277.17;105581;1251;73066;-64
2023/09/27 10:41:33;;;;;;;7.30;4.20;;;;;;;29.65;62.65;101268.90;105512;1251;69342;-64
2023/09/27 10:44:03;;;;;;;8.10;4.60;;;;;;;29.81;61.61;101267.83;105606;1251;69064;-65
2023/09/27 10:46:48;;;;;;;10.10;5.60;;;;;;;29.97;60.62;101261.39;105553;1251;74837;-65
2023/09/27 10:49:29;;;;;;;6.10;4.60;;;;;;;30.06;59.02;101252.58;105740;1255;83308;-64
2023/09/27 10:51:58;;;;;;;10.70;4.20;;;;;;;30.20;58.45;101248.48;105592;1251;72795;-64
2023/09/27 10:54:35;;;;;;;11.40;4.40;;;;;;;30.45;57.54;101247.95;105560;1254;69122;-64
2023/09/27 10:57:03;;;;;;;5.60;4.30;;;;;;;30.61;56.50;101249.08;105663;1254;69148;-65
2023/09/27 10:59:32;;;;;;;9.70;4.10;;;;;;;30.76;55.54;101248.89;105682;1251;75101;-63
2023/09/27 11:02:02;;;;;;;6.60;4.00;;;;;;;30.82;54.69;101242.52;105703;1255;83267;-63
2023/09/27 11:04:32;;;;;;;9.30;3.90;;;;;;;30.96;54.01;101238.17;105622;1254;72969;-64
2023/09/27 11:07:01;;;;;;;10.10;4.50;;;;;;;31.02;53.37;101231.88;105542;1251;69056;-64
2023/09/27 11:09:29;;;;;;;9.30;4.30;;;;;;;31.14;52.50;101228.78;105544;1256;69190;-64
2023/09/27 11:11:59;;;;;;;9.70;4.30;;;;;;;31.22;51.97;101223.34;105810;1255;73835;-64
2023/09/27 11:14:28;;;;;;;6.00;3.80;;;;;;;31.26;51.20;101218.91;105647;1255;83641;-64
2023/09/27 11:17:13;;;;;;;6.20;4.20;;;;;;;31.35;51.03;101212.50;105605;1256;73189;-63